sensor_id;sensor_type;location;lat;lon;timestamp;P1;durP1;ratioP1;P2;durP2;ratioP2
15012;SDS011;7603;49.432;11.418;2022-12-24T00:00:16;0.77;;;0.70;;
15012;SDS011;7603;49.432;11.418;2022-12-24T00:02:42;1.48;;;1.00;;
15012;SDS011;7603;49.432;11.418;2022-12-24T00:05:08;0.80;;;0.80;;
15012;SDS011;7603;49.432;11.418;2022-12-24T00:07:34;1.08;;;0.93;;
15012;SDS011;7603;49.432;11.418;2022-12-24T00:10:01;5.28;;;2.25;;
15012;SDS011;7603;49.432;11.418;2022-12-24T00:12:27;3.20;;;1.05;;
15012;SDS011;7603;49.432;11.418;2022-12-24T00:14:53;1.77;;;1.20;;
15012;SDS011;7603;49.432;11.418;2022-12-24T00:17:19;5.70;;;1.20;;
15012;SDS011;7603;49.432;11.418;2022-12-24T00:19:44;1.48;;;1.38;;
15012;SDS011;7603;49.432;11.418;2022-12-24T00:22:10;2.47;;;0.98;;
15012;SDS011;7603;49.432;11.418;2022-12-24T00:24:36;2.58;;;0.98;;
15012;SDS011;7603;49.432;11.418;2022-12-24T00:27:02;5.22;;;1.23;;
15012;SDS011;7603;49.432;11.418;2022-12-24T00:29:30;0.70;;;0.70;;
15012;SDS011;7603;49.432;11.418;2022-12-24T00:31:57;0.93;;;0.93;;
15012;SDS011;7603;49.432;11.418;2022-12-24T00:34:23;1.48;;;0.90;;
15012;SDS011;7603;49.432;11.418;2022-12-24T00:36:49;5.18;;;1.20;;
15012;SDS011;7603;49.432;11.418;2022-12-24T00:39:14;2.90;;;0.93;;
15012;SDS011;7603;49.432;11.418;2022-12-24T00:41:40;1.48;;;0.77;;
15012;SDS011;7603;49.432;11.418;2022-12-24T00:44:06;1.48;;;1.23;;
15012;SDS011;7603;49.432;11.418;2022-12-24T00:46:38;0.90;;;0.90;;
15012;SDS011;7603;49.432;11.418;2022-12-24T00:49:05;3.50;;;1.42;;
15012;SDS011;7603;49.432;11.418;2022-12-24T00:51:33;4.47;;;0.93;;
15012;SDS011;7603;49.432;11.418;2022-12-24T00:53:59;1.40;;;1.10;;
15012;SDS011;7603;49.432;11.418;2022-12-24T00:56:25;2.72;;;1.30;;
15012;SDS011;7603;49.432;11.418;2022-12-24T00:58:51;4.25;;;1.55;;
15012;SDS011;7603;49.432;11.418;2022-12-24T01:01:18;1.58;;;0.95;;
15012;SDS011;7603;49.432;11.418;2022-12-24T01:03:46;2.22;;;1.23;;
15012;SDS011;7603;49.432;11.418;2022-12-24T01:06:19;0.90;;;0.90;;
15012;SDS011;7603;49.432;11.418;2022-12-24T01:08:48;4.10;;;1.20;;
15012;SDS011;7603;49.432;11.418;2022-12-24T01:11:14;3.30;;;0.90;;
15012;SDS011;7603;49.432;11.418;2022-12-24T01:13:40;2.33;;;1.15;;
15012;SDS011;7603;49.432;11.418;2022-12-24T01:16:16;2.40;;;1.10;;
15012;SDS011;7603;49.432;11.418;2022-12-24T01:18:44;2.42;;;1.27;;
15012;SDS011;7603;49.432;11.418;2022-12-24T01:21:12;2.30;;;1.00;;
15012;SDS011;7603;49.432;11.418;2022-12-24T01:23:38;3.05;;;1.27;;
15012;SDS011;7603;49.432;11.418;2022-12-24T01:26:04;2.78;;;1.25;;
15012;SDS011;7603;49.432;11.418;2022-12-24T01:28:31;0.95;;;0.95;;
15012;SDS011;7603;49.432;11.418;2022-12-24T01:30:57;1.38;;;1.27;;
15012;SDS011;7603;49.432;11.418;2022-12-24T01:33:23;2.80;;;0.90;;
15012;SDS011;7603;49.432;11.418;2022-12-24T01:35:53;3.17;;;1.38;;
15012;SDS011;7603;49.432;11.418;2022-12-24T01:38:19;0.95;;;0.95;;
15012;SDS011;7603;49.432;11.418;2022-12-24T01:40:45;1.17;;;1.08;;
15012;SDS011;7603;49.432;11.418;2022-12-24T01:43:30;6.32;;;1.38;;
15012;SDS011;7603;49.432;11.418;2022-12-24T01:48:48;5.80;;;1.13;;
15012;SDS011;7603;49.432;11.418;2022-12-24T01:54:04;3.03;;;1.30;;
15012;SDS011;7603;49.432;11.418;2022-12-24T01:56:34;7.00;;;1.35;;
15012;SDS011;7603;49.432;11.418;2022-12-24T01:59:03;2.08;;;0.75;;
15012;SDS011;7603;49.432;11.418;2022-12-24T02:01:32;2.45;;;1.00;;
15012;SDS011;7603;49.432;11.418;2022-12-24T02:03:58;3.10;;;0.90;;
15012;SDS011;7603;49.432;11.418;2022-12-24T02:06:25;4.10;;;0.95;;
15012;SDS011;7603;49.432;11.418;2022-12-24T02:08:51;2.40;;;1.00;;
15012;SDS011;7603;49.432;11.418;2022-12-24T02:11:20;1.77;;;0.90;;
15012;SDS011;7603;49.432;11.418;2022-12-24T02:13:48;7.35;;;1.70;;
15012;SDS011;7603;49.432;11.418;2022-12-24T02:16:24;2.53;;;1.00;;
15012;SDS011;7603;49.432;11.418;2022-12-24T02:18:57;1.52;;;1.13;;
15012;SDS011;7603;49.432;11.418;2022-12-24T02:21:45;5.13;;;1.50;;
15012;SDS011;7603;49.432;11.418;2022-12-24T02:24:20;4.15;;;1.55;;
15012;SDS011;7603;49.432;11.418;2022-12-24T02:32:18;3.40;;;1.08;;
15012;SDS011;7603;49.432;11.418;2022-12-24T02:35:08;2.58;;;1.60;;
15012;SDS011;7603;49.432;11.418;2022-12-24T02:37:44;4.57;;;1.95;;
15012;SDS011;7603;49.432;11.418;2022-12-24T02:40:17;3.72;;;1.23;;
15012;SDS011;7603;49.432;11.418;2022-12-24T02:42:54;1.27;;;1.10;;
15012;SDS011;7603;49.432;11.418;2022-12-24T02:45:30;2.17;;;1.25;;
15012;SDS011;7603;49.432;11.418;2022-12-24T02:47:58;2.97;;;2.30;;
15012;SDS011;7603;49.432;11.418;2022-12-24T02:50:25;4.13;;;2.15;;
15012;SDS011;7603;49.432;11.418;2022-12-24T02:52:51;2.25;;;1.98;;
15012;SDS011;7603;49.432;11.418;2022-12-24T02:55:21;2.88;;;1.10;;
15012;SDS011;7603;49.432;11.418;2022-12-24T03:01:02;1.92;;;1.23;;
15012;SDS011;7603;49.432;11.418;2022-12-24T03:06:31;2.45;;;1.77;;
15012;SDS011;7603;49.432;11.418;2022-12-24T03:09:01;3.67;;;1.25;;
15012;SDS011;7603;49.432;11.418;2022-12-24T03:12:02;6.35;;;1.33;;
15012;SDS011;7603;49.432;11.418;2022-12-24T03:14:42;2.75;;;1.40;;
15012;SDS011;7603;49.432;11.418;2022-12-24T03:17:09;0.80;;;0.80;;
15012;SDS011;7603;49.432;11.418;2022-12-24T03:19:35;1.30;;;1.20;;
15012;SDS011;7603;49.432;11.418;2022-12-24T03:22:02;3.15;;;1.45;;
15012;SDS011;7603;49.432;11.418;2022-12-24T03:24:31;2.30;;;1.45;;
15012;SDS011;7603;49.432;11.418;2022-12-24T03:26:57;0.95;;;0.90;;
15012;SDS011;7603;49.432;11.418;2022-12-24T03:29:24;4.20;;;1.30;;
15012;SDS011;7603;49.432;11.418;2022-12-24T03:31:51;1.10;;;1.00;;
15012;SDS011;7603;49.432;11.418;2022-12-24T03:34:22;2.80;;;1.10;;
15012;SDS011;7603;49.432;11.418;2022-12-24T03:36:48;7.60;;;1.35;;
15012;SDS011;7603;49.432;11.418;2022-12-24T03:39:15;1.27;;;1.27;;
15012;SDS011;7603;49.432;11.418;2022-12-24T03:41:40;8.82;;;1.20;;
15012;SDS011;7603;49.432;11.418;2022-12-24T03:44:06;3.05;;;1.10;;
15012;SDS011;7603;49.432;11.418;2022-12-24T03:46:32;3.47;;;1.20;;
15012;SDS011;7603;49.432;11.418;2022-12-24T03:48:57;1.65;;;0.95;;
15012;SDS011;7603;49.432;11.418;2022-12-24T03:51:23;4.40;;;1.30;;
15012;SDS011;7603;49.432;11.418;2022-12-24T03:53:53;1.80;;;1.33;;
15012;SDS011;7603;49.432;11.418;2022-12-24T03:56:22;5.70;;;1.05;;
15012;SDS011;7603;49.432;11.418;2022-12-24T03:58:48;5.25;;;1.35;;
15012;SDS011;7603;49.432;11.418;2022-12-24T04:01:14;2.47;;;1.20;;
15012;SDS011;7603;49.432;11.418;2022-12-24T04:03:40;1.35;;;1.30;;
15012;SDS011;7603;49.432;11.418;2022-12-24T04:06:07;1.20;;;1.20;;
15012;SDS011;7603;49.432;11.418;2022-12-24T04:08:35;4.05;;;1.35;;
15012;SDS011;7603;49.432;11.418;2022-12-24T04:11:02;5.15;;;1.27;;
15012;SDS011;7603;49.432;11.418;2022-12-24T04:13:29;3.78;;;1.00;;
15012;SDS011;7603;49.432;11.418;2022-12-24T04:15:58;2.97;;;1.10;;
15012;SDS011;7603;49.432;11.418;2022-12-24T04:18:26;1.98;;;1.13;;
15012;SDS011;7603;49.432;11.418;2022-12-24T04:20:52;2.13;;;1.23;;
15012;SDS011;7603;49.432;11.418;2022-12-24T04:23:18;1.13;;;1.02;;
15012;SDS011;7603;49.432;11.418;2022-12-24T04:25:44;6.25;;;1.52;;
15012;SDS011;7603;49.432;11.418;2022-12-24T04:28:10;3.92;;;1.40;;
15012;SDS011;7603;49.432;11.418;2022-12-24T04:30:39;3.35;;;1.05;;
15012;SDS011;7603;49.432;11.418;2022-12-24T04:33:05;1.20;;;1.13;;
15012;SDS011;7603;49.432;11.418;2022-12-24T04:35:30;4.18;;;1.67;;
15012;SDS011;7603;49.432;11.418;2022-12-24T04:37:56;1.85;;;0.90;;
15012;SDS011;7603;49.432;11.418;2022-12-24T04:40:22;1.42;;;1.13;;
15012;SDS011;7603;49.432;11.418;2022-12-24T04:42:47;2.28;;;1.15;;
15012;SDS011;7603;49.432;11.418;2022-12-24T04:45:14;2.78;;;1.00;;
15012;SDS011;7603;49.432;11.418;2022-12-24T04:47:41;4.05;;;1.42;;
15012;SDS011;7603;49.432;11.418;2022-12-24T04:50:06;5.68;;;1.13;;
15012;SDS011;7603;49.432;11.418;2022-12-24T04:52:34;1.85;;;1.00;;
15012;SDS011;7603;49.432;11.418;2022-12-24T04:54:59;5.28;;;1.25;;
15012;SDS011;7603;49.432;11.418;2022-12-24T04:57:25;4.10;;;1.52;;
15012;SDS011;7603;49.432;11.418;2022-12-24T04:59:51;2.20;;;1.02;;
15012;SDS011;7603;49.432;11.418;2022-12-24T05:02:16;1.92;;;1.23;;
15012;SDS011;7603;49.432;11.418;2022-12-24T05:04:42;2.97;;;1.40;;
15012;SDS011;7603;49.432;11.418;2022-12-24T05:07:08;6.45;;;1.50;;
15012;SDS011;7603;49.432;11.418;2022-12-24T05:09:33;2.28;;;0.75;;
15012;SDS011;7603;49.432;11.418;2022-12-24T05:11:59;4.63;;;1.30;;
15012;SDS011;7603;49.432;11.418;2022-12-24T05:14:25;5.60;;;1.20;;
15012;SDS011;7603;49.432;11.418;2022-12-24T05:16:50;4.65;;;1.55;;
15012;SDS011;7603;49.432;11.418;2022-12-24T05:19:16;3.15;;;1.00;;
15012;SDS011;7603;49.432;11.418;2022-12-24T05:21:42;1.08;;;1.08;;
15012;SDS011;7603;49.432;11.418;2022-12-24T05:24:09;3.83;;;0.95;;
15012;SDS011;7603;49.432;11.418;2022-12-24T05:26:54;5.47;;;1.42;;
15012;SDS011;7603;49.432;11.418;2022-12-24T05:29:22;5.38;;;1.73;;
15012;SDS011;7603;49.432;11.418;2022-12-24T05:31:47;2.38;;;1.38;;
15012;SDS011;7603;49.432;11.418;2022-12-24T05:34:14;0.98;;;0.98;;
15012;SDS011;7603;49.432;11.418;2022-12-24T05:36:40;2.75;;;1.20;;
15012;SDS011;7603;49.432;11.418;2022-12-24T05:39:10;6.07;;;1.05;;
15012;SDS011;7603;49.432;11.418;2022-12-24T05:41:39;1.25;;;1.25;;
15012;SDS011;7603;49.432;11.418;2022-12-24T05:44:05;6.90;;;1.20;;
15012;SDS011;7603;49.432;11.418;2022-12-24T05:46:30;2.00;;;1.25;;
15012;SDS011;7603;49.432;11.418;2022-12-24T05:48:56;5.00;;;1.30;;
15012;SDS011;7603;49.432;11.418;2022-12-24T05:51:22;1.95;;;1.23;;
15012;SDS011;7603;49.432;11.418;2022-12-24T05:53:48;1.52;;;1.30;;
15012;SDS011;7603;49.432;11.418;2022-12-24T05:56:16;1.33;;;1.25;;
15012;SDS011;7603;49.432;11.418;2022-12-24T05:58:44;1.67;;;1.60;;
15012;SDS011;7603;49.432;11.418;2022-12-24T06:01:10;3.00;;;1.67;;
15012;SDS011;7603;49.432;11.418;2022-12-24T06:03:37;1.38;;;1.27;;
15012;SDS011;7603;49.432;11.418;2022-12-24T06:06:04;4.13;;;1.13;;
15012;SDS011;7603;49.432;11.418;2022-12-24T06:08:32;2.25;;;1.00;;
15012;SDS011;7603;49.432;11.418;2022-12-24T06:11:00;2.05;;;1.33;;
15012;SDS011;7603;49.432;11.418;2022-12-24T06:13:28;1.58;;;1.15;;
15012;SDS011;7603;49.432;11.418;2022-12-24T06:15:58;2.80;;;1.58;;
15012;SDS011;7603;49.432;11.418;2022-12-24T06:18:25;1.80;;;1.50;;
15012;SDS011;7603;49.432;11.418;2022-12-24T06:20:54;2.13;;;1.45;;
15012;SDS011;7603;49.432;11.418;2022-12-24T06:23:21;1.67;;;1.30;;
15012;SDS011;7603;49.432;11.418;2022-12-24T06:25:48;5.03;;;1.40;;
15012;SDS011;7603;49.432;11.418;2022-12-24T06:28:14;1.48;;;1.23;;
15012;SDS011;7603;49.432;11.418;2022-12-24T06:30:40;5.32;;;1.50;;
15012;SDS011;7603;49.432;11.418;2022-12-24T06:33:05;1.77;;;1.67;;
15012;SDS011;7603;49.432;11.418;2022-12-24T06:35:32;4.37;;;2.40;;
15012;SDS011;7603;49.432;11.418;2022-12-24T06:37:58;1.95;;;1.42;;
15012;SDS011;7603;49.432;11.418;2022-12-24T06:40:24;1.90;;;1.75;;
15012;SDS011;7603;49.432;11.418;2022-12-24T06:42:50;1.00;;;1.00;;
15012;SDS011;7603;49.432;11.418;2022-12-24T06:45:16;4.72;;;1.55;;
15012;SDS011;7603;49.432;11.418;2022-12-24T06:47:42;4.47;;;1.25;;
15012;SDS011;7603;49.432;11.418;2022-12-24T06:50:07;4.22;;;1.00;;
15012;SDS011;7603;49.432;11.418;2022-12-24T06:52:33;2.35;;;1.10;;
15012;SDS011;7603;49.432;11.418;2022-12-24T06:54:59;2.20;;;1.10;;
15012;SDS011;7603;49.432;11.418;2022-12-24T06:57:25;2.50;;;2.00;;
15012;SDS011;7603;49.432;11.418;2022-12-24T06:59:51;7.13;;;1.30;;
15012;SDS011;7603;49.432;11.418;2022-12-24T07:02:16;1.23;;;1.13;;
15012;SDS011;7603;49.432;11.418;2022-12-24T07:04:42;2.63;;;1.00;;
15012;SDS011;7603;49.432;11.418;2022-12-24T07:07:07;2.60;;;1.50;;
15012;SDS011;7603;49.432;11.418;2022-12-24T07:09:33;5.82;;;0.95;;
15012;SDS011;7603;49.432;11.418;2022-12-24T07:11:59;1.77;;;1.20;;
15012;SDS011;7603;49.432;11.418;2022-12-24T07:14:24;1.77;;;0.90;;
15012;SDS011;7603;49.432;11.418;2022-12-24T07:16:50;3.95;;;1.10;;
15012;SDS011;7603;49.432;11.418;2022-12-24T07:19:17;4.50;;;1.00;;
15012;SDS011;7603;49.432;11.418;2022-12-24T07:21:42;1.23;;;1.13;;
15012;SDS011;7603;49.432;11.418;2022-12-24T07:24:08;2.55;;;1.10;;
15012;SDS011;7603;49.432;11.418;2022-12-24T07:26:34;2.58;;;1.40;;
15012;SDS011;7603;49.432;11.418;2022-12-24T07:29:00;1.25;;;1.20;;
15012;SDS011;7603;49.432;11.418;2022-12-24T07:31:25;1.33;;;1.25;;
15012;SDS011;7603;49.432;11.418;2022-12-24T07:33:51;11.25;;;2.00;;
15012;SDS011;7603;49.432;11.418;2022-12-24T07:36:18;3.85;;;2.40;;
15012;SDS011;7603;49.432;11.418;2022-12-24T07:38:45;4.70;;;2.63;;
15012;SDS011;7603;49.432;11.418;2022-12-24T07:41:12;1.88;;;1.70;;
15012;SDS011;7603;49.432;11.418;2022-12-24T07:43:38;6.43;;;2.10;;
15012;SDS011;7603;49.432;11.418;2022-12-24T07:46:04;5.05;;;1.85;;
15012;SDS011;7603;49.432;11.418;2022-12-24T07:48:29;3.03;;;1.60;;
15012;SDS011;7603;49.432;11.418;2022-12-24T07:50:57;4.80;;;1.90;;
15012;SDS011;7603;49.432;11.418;2022-12-24T07:53:24;2.38;;;1.77;;
15012;SDS011;7603;49.432;11.418;2022-12-24T07:55:50;2.35;;;1.70;;
15012;SDS011;7603;49.432;11.418;2022-12-24T07:58:16;6.28;;;1.92;;
15012;SDS011;7603;49.432;11.418;2022-12-24T08:00:43;3.40;;;2.05;;
15012;SDS011;7603;49.432;11.418;2022-12-24T08:03:14;2.20;;;1.80;;
15012;SDS011;7603;49.432;11.418;2022-12-24T08:05:41;2.88;;;1.48;;
15012;SDS011;7603;49.432;11.418;2022-12-24T08:08:07;3.53;;;1.85;;
15012;SDS011;7603;49.432;11.418;2022-12-24T08:10:33;4.47;;;2.08;;
15012;SDS011;7603;49.432;11.418;2022-12-24T08:12:58;3.40;;;2.17;;
15012;SDS011;7603;49.432;11.418;2022-12-24T08:15:24;1.23;;;1.20;;
15012;SDS011;7603;49.432;11.418;2022-12-24T08:17:49;10.57;;;3.17;;
15012;SDS011;7603;49.432;11.418;2022-12-24T08:20:15;7.32;;;2.63;;
15012;SDS011;7603;49.432;11.418;2022-12-24T08:22:41;6.85;;;3.92;;
15012;SDS011;7603;49.432;11.418;2022-12-24T08:25:07;3.20;;;2.10;;
15012;SDS011;7603;49.432;11.418;2022-12-24T08:27:34;3.05;;;1.27;;
15012;SDS011;7603;49.432;11.418;2022-12-24T08:30:00;5.38;;;2.10;;
15012;SDS011;7603;49.432;11.418;2022-12-24T08:32:26;9.45;;;3.13;;
15012;SDS011;7603;49.432;11.418;2022-12-24T08:34:51;4.80;;;2.25;;
15012;SDS011;7603;49.432;11.418;2022-12-24T08:37:17;6.00;;;2.72;;
15012;SDS011;7603;49.432;11.418;2022-12-24T08:39:43;5.57;;;1.50;;
15012;SDS011;7603;49.432;11.418;2022-12-24T08:42:08;3.85;;;1.58;;
15012;SDS011;7603;49.432;11.418;2022-12-24T08:44:34;2.30;;;1.75;;
15012;SDS011;7603;49.432;11.418;2022-12-24T08:47:00;1.55;;;1.45;;
15012;SDS011;7603;49.432;11.418;2022-12-24T08:49:25;7.25;;;1.40;;
15012;SDS011;7603;49.432;11.418;2022-12-24T08:51:51;3.22;;;1.67;;
15012;SDS011;7603;49.432;11.418;2022-12-24T08:54:17;2.17;;;1.95;;
15012;SDS011;7603;49.432;11.418;2022-12-24T08:56:44;5.53;;;1.55;;
15012;SDS011;7603;49.432;11.418;2022-12-24T08:59:10;3.92;;;1.80;;
15012;SDS011;7603;49.432;11.418;2022-12-24T09:01:36;3.20;;;1.65;;
15012;SDS011;7603;49.432;11.418;2022-12-24T09:04:03;5.75;;;2.78;;
15012;SDS011;7603;49.432;11.418;2022-12-24T09:06:30;4.40;;;1.65;;
15012;SDS011;7603;49.432;11.418;2022-12-24T09:08:56;1.52;;;1.40;;
15012;SDS011;7603;49.432;11.418;2022-12-24T09:11:23;5.22;;;1.75;;
15012;SDS011;7603;49.432;11.418;2022-12-24T09:13:49;5.78;;;3.08;;
15012;SDS011;7603;49.432;11.418;2022-12-24T09:16:15;1.48;;;1.38;;
15012;SDS011;7603;49.432;11.418;2022-12-24T09:18:41;3.38;;;1.58;;
15012;SDS011;7603;49.432;11.418;2022-12-24T09:21:11;4.57;;;1.80;;
15012;SDS011;7603;49.432;11.418;2022-12-24T09:23:39;7.40;;;1.60;;
15012;SDS011;7603;49.432;11.418;2022-12-24T09:26:08;4.57;;;1.42;;
15012;SDS011;7603;49.432;11.418;2022-12-24T09:28:37;4.82;;;1.48;;
15012;SDS011;7603;49.432;11.418;2022-12-24T09:31:03;5.88;;;2.08;;
15012;SDS011;7603;49.432;11.418;2022-12-24T09:33:31;3.30;;;1.98;;
15012;SDS011;7603;49.432;11.418;2022-12-24T09:35:59;1.25;;;1.15;;
15012;SDS011;7603;49.432;11.418;2022-12-24T09:38:28;2.80;;;1.30;;
15012;SDS011;7603;49.432;11.418;2022-12-24T09:40:55;8.25;;;1.50;;
15012;SDS011;7603;49.432;11.418;2022-12-24T09:43:31;1.65;;;1.55;;
15012;SDS011;7603;49.432;11.418;2022-12-24T09:46:08;5.22;;;1.40;;
15012;SDS011;7603;49.432;11.418;2022-12-24T09:48:40;9.20;;;2.95;;
15012;SDS011;7603;49.432;11.418;2022-12-24T09:51:19;4.10;;;1.70;;
15012;SDS011;7603;49.432;11.418;2022-12-24T09:56:50;9.20;;;2.08;;
15012;SDS011;7603;49.432;11.418;2022-12-24T09:59:21;4.18;;;2.03;;
15012;SDS011;7603;49.432;11.418;2022-12-24T10:01:51;4.07;;;2.22;;
15012;SDS011;7603;49.432;11.418;2022-12-24T10:04:19;6.55;;;1.75;;
15012;SDS011;7603;49.432;11.418;2022-12-24T10:07:00;6.03;;;2.28;;
15012;SDS011;7603;49.432;11.418;2022-12-24T10:17:37;5.20;;;1.40;;
15012;SDS011;7603;49.432;11.418;2022-12-24T10:20:21;4.05;;;1.63;;
15012;SDS011;7603;49.432;11.418;2022-12-24T10:27:54;7.13;;;2.28;;
15012;SDS011;7603;49.432;11.418;2022-12-24T10:30:23;8.75;;;2.97;;
15012;SDS011;7603;49.432;11.418;2022-12-24T10:32:51;4.60;;;1.63;;
15012;SDS011;7603;49.432;11.418;2022-12-24T10:35:22;3.08;;;1.98;;
15012;SDS011;7603;49.432;11.418;2022-12-24T10:37:53;3.63;;;1.45;;
15012;SDS011;7603;49.432;11.418;2022-12-24T10:43:16;3.17;;;2.38;;
15012;SDS011;7603;49.432;11.418;2022-12-24T10:45:52;5.65;;;1.77;;
15012;SDS011;7603;49.432;11.418;2022-12-24T10:48:44;4.15;;;1.95;;
15012;SDS011;7603;49.432;11.418;2022-12-24T10:51:40;3.15;;;2.10;;
15012;SDS011;7603;49.432;11.418;2022-12-24T10:54:12;4.50;;;1.65;;
15012;SDS011;7603;49.432;11.418;2022-12-24T10:56:49;3.10;;;1.42;;
15012;SDS011;7603;49.432;11.418;2022-12-24T10:59:27;2.58;;;1.77;;
15012;SDS011;7603;49.432;11.418;2022-12-24T11:01:58;3.70;;;1.27;;
15012;SDS011;7603;49.432;11.418;2022-12-24T11:04:26;7.25;;;2.25;;
15012;SDS011;7603;49.432;11.418;2022-12-24T11:06:55;4.63;;;1.95;;
15012;SDS011;7603;49.432;11.418;2022-12-24T11:09:30;4.72;;;2.00;;
15012;SDS011;7603;49.432;11.418;2022-12-24T11:12:02;8.35;;;1.55;;
15012;SDS011;7603;49.432;11.418;2022-12-24T11:14:34;8.52;;;2.45;;
15012;SDS011;7603;49.432;11.418;2022-12-24T11:17:01;3.13;;;1.52;;
15012;SDS011;7603;49.432;11.418;2022-12-24T11:19:29;3.28;;;1.50;;
15012;SDS011;7603;49.432;11.418;2022-12-24T11:22:04;2.15;;;1.40;;
15012;SDS011;7603;49.432;11.418;2022-12-24T11:24:33;1.25;;;1.15;;
15012;SDS011;7603;49.432;11.418;2022-12-24T11:32:38;2.03;;;1.67;;
15012;SDS011;7603;49.432;11.418;2022-12-24T11:35:05;9.60;;;2.00;;
15012;SDS011;7603;49.432;11.418;2022-12-24T11:37:33;4.72;;;1.15;;
15012;SDS011;7603;49.432;11.418;2022-12-24T11:39:59;2.08;;;1.33;;
15012;SDS011;7603;49.432;11.418;2022-12-24T11:42:36;6.78;;;1.73;;
15012;SDS011;7603;49.432;11.418;2022-12-24T11:45:06;2.38;;;1.85;;
15012;SDS011;7603;49.432;11.418;2022-12-24T11:47:44;3.88;;;1.80;;
15012;SDS011;7603;49.432;11.418;2022-12-24T11:50:54;2.45;;;1.92;;
15012;SDS011;7603;49.432;11.418;2022-12-24T11:55:47;10.05;;;2.47;;
15012;SDS011;7603;49.432;11.418;2022-12-24T12:01:22;4.75;;;1.73;;
15012;SDS011;7603;49.432;11.418;2022-12-24T12:04:05;3.05;;;1.92;;
15012;SDS011;7603;49.432;11.418;2022-12-24T12:06:38;6.70;;;1.45;;
15012;SDS011;7603;49.432;11.418;2022-12-24T12:09:41;4.88;;;1.17;;
15012;SDS011;7603;49.432;11.418;2022-12-24T12:12:08;3.08;;;1.40;;
15012;SDS011;7603;49.432;11.418;2022-12-24T12:14:39;1.50;;;1.40;;
15012;SDS011;7603;49.432;11.418;2022-12-24T12:20:23;1.48;;;0.90;;
15012;SDS011;7603;49.432;11.418;2022-12-24T12:22:57;3.90;;;1.20;;
15012;SDS011;7603;49.432;11.418;2022-12-24T12:27:53;2.60;;;1.63;;
15012;SDS011;7603;49.432;11.418;2022-12-24T12:30:20;7.95;;;1.85;;
15012;SDS011;7603;49.432;11.418;2022-12-24T12:33:08;3.28;;;1.70;;
15012;SDS011;7603;49.432;11.418;2022-12-24T12:35:56;2.38;;;1.35;;
15012;SDS011;7603;49.432;11.418;2022-12-24T12:38:24;3.20;;;0.98;;
15012;SDS011;7603;49.432;11.418;2022-12-24T12:49:25;3.20;;;1.85;;
15012;SDS011;7603;49.432;11.418;2022-12-24T12:57:20;8.95;;;2.63;;
15012;SDS011;7603;49.432;11.418;2022-12-24T13:13:08;2.78;;;1.70;;
15012;SDS011;7603;49.432;11.418;2022-12-24T13:18:40;6.07;;;1.67;;
15012;SDS011;7603;49.432;11.418;2022-12-24T13:21:17;4.00;;;1.30;;
15012;SDS011;7603;49.432;11.418;2022-12-24T13:23:46;3.03;;;1.50;;
15012;SDS011;7603;49.432;11.418;2022-12-24T13:26:13;5.32;;;1.80;;
15012;SDS011;7603;49.432;11.418;2022-12-24T13:28:39;3.33;;;1.17;;
15012;SDS011;7603;49.432;11.418;2022-12-24T13:33:53;3.15;;;1.00;;
15012;SDS011;7603;49.432;11.418;2022-12-24T13:36:23;4.80;;;1.45;;
15012;SDS011;7603;49.432;11.418;2022-12-24T13:38:52;3.75;;;1.48;;
15012;SDS011;7603;49.432;11.418;2022-12-24T13:49:34;2.55;;;1.13;;
15012;SDS011;7603;49.432;11.418;2022-12-24T14:00:06;6.30;;;1.48;;
15012;SDS011;7603;49.432;11.418;2022-12-24T14:02:49;3.53;;;1.23;;
15012;SDS011;7603;49.432;11.418;2022-12-24T14:05:25;2.83;;;1.42;;
15012;SDS011;7603;49.432;11.418;2022-12-24T14:07:55;4.07;;;1.17;;
15012;SDS011;7603;49.432;11.418;2022-12-24T14:10:35;2.45;;;1.33;;
15012;SDS011;7603;49.432;11.418;2022-12-24T14:13:46;2.50;;;1.10;;
15012;SDS011;7603;49.432;11.418;2022-12-24T14:19:00;2.03;;;1.20;;
15012;SDS011;7603;49.432;11.418;2022-12-24T14:21:34;4.35;;;1.70;;
15012;SDS011;7603;49.432;11.418;2022-12-24T14:24:12;1.42;;;1.33;;
15012;SDS011;7603;49.432;11.418;2022-12-24T14:26:45;2.30;;;1.40;;
15012;SDS011;7603;49.432;11.418;2022-12-24T14:29:19;1.65;;;1.45;;
15012;SDS011;7603;49.432;11.418;2022-12-24T14:31:54;6.85;;;1.88;;
15012;SDS011;7603;49.432;11.418;2022-12-24T14:34:22;7.25;;;2.10;;
15012;SDS011;7603;49.432;11.418;2022-12-24T14:36:49;1.95;;;1.13;;
15012;SDS011;7603;49.432;11.418;2022-12-24T14:41:57;5.03;;;1.30;;
15012;SDS011;7603;49.432;11.418;2022-12-24T14:55:48;5.70;;;1.15;;
15012;SDS011;7603;49.432;11.418;2022-12-24T14:58:24;4.25;;;2.05;;
15012;SDS011;7603;49.432;11.418;2022-12-24T15:03:58;1.65;;;1.27;;
15012;SDS011;7603;49.432;11.418;2022-12-24T15:06:33;6.15;;;1.40;;
15012;SDS011;7603;49.432;11.418;2022-12-24T15:09:02;4.78;;;1.60;;
15012;SDS011;7603;49.432;11.418;2022-12-24T15:11:28;2.85;;;1.35;;
15012;SDS011;7603;49.432;11.418;2022-12-24T15:13:55;2.10;;;1.33;;
15012;SDS011;7603;49.432;11.418;2022-12-24T15:16:25;3.65;;;2.03;;
15012;SDS011;7603;49.432;11.418;2022-12-24T15:18:55;7.25;;;2.17;;
15012;SDS011;7603;49.432;11.418;2022-12-24T15:21:25;2.28;;;1.20;;
15012;SDS011;7603;49.432;11.418;2022-12-24T15:23:57;1.88;;;1.05;;
15012;SDS011;7603;49.432;11.418;2022-12-24T15:28:51;6.90;;;2.00;;
15012;SDS011;7603;49.432;11.418;2022-12-24T15:31:19;10.15;;;3.63;;
15012;SDS011;7603;49.432;11.418;2022-12-24T15:33:47;7.97;;;2.83;;
15012;SDS011;7603;49.432;11.418;2022-12-24T15:36:15;4.90;;;1.85;;
15012;SDS011;7603;49.432;11.418;2022-12-24T15:38:49;4.22;;;1.60;;
15012;SDS011;7603;49.432;11.418;2022-12-24T15:41:18;2.90;;;1.40;;
15012;SDS011;7603;49.432;11.418;2022-12-24T15:43:46;3.10;;;1.40;;
15012;SDS011;7603;49.432;11.418;2022-12-24T15:46:17;4.93;;;1.85;;
15012;SDS011;7603;49.432;11.418;2022-12-24T15:48:51;4.57;;;1.60;;
15012;SDS011;7603;49.432;11.418;2022-12-24T15:51:23;8.80;;;2.17;;
15012;SDS011;7603;49.432;11.418;2022-12-24T15:54:03;5.07;;;1.77;;
15012;SDS011;7603;49.432;11.418;2022-12-24T15:56:35;2.58;;;1.38;;
15012;SDS011;7603;49.432;11.418;2022-12-24T15:59:10;5.43;;;1.42;;
15012;SDS011;7603;49.432;11.418;2022-12-24T16:01:40;3.75;;;1.48;;
15012;SDS011;7603;49.432;11.418;2022-12-24T16:04:26;8.18;;;2.17;;
15012;SDS011;7603;49.432;11.418;2022-12-24T16:12:00;12.40;;;7.33;;
15012;SDS011;7603;49.432;11.418;2022-12-24T16:14:27;22.98;;;9.02;;
15012;SDS011;7603;49.432;11.418;2022-12-24T16:16:53;45.75;;;12.48;;
15012;SDS011;7603;49.432;11.418;2022-12-24T16:19:23;47.00;;;17.98;;
15012;SDS011;7603;49.432;11.418;2022-12-24T16:21:55;45.38;;;11.25;;
15012;SDS011;7603;49.432;11.418;2022-12-24T16:26:53;106.78;;;55.35;;
15012;SDS011;7603;49.432;11.418;2022-12-24T16:29:19;152.30;;;76.72;;
15012;SDS011;7603;49.432;11.418;2022-12-24T16:31:50;29.55;;;20.13;;
15012;SDS011;7603;49.432;11.418;2022-12-24T16:34:18;7.88;;;5.15;;
15012;SDS011;7603;49.432;11.418;2022-12-24T16:36:47;16.67;;;11.05;;
15012;SDS011;7603;49.432;11.418;2022-12-24T16:39:13;7.43;;;4.93;;
15012;SDS011;7603;49.432;11.418;2022-12-24T16:41:48;2.43;;;2.23;;
15012;SDS011;7603;49.432;11.418;2022-12-24T16:44:36;5.40;;;4.85;;
15012;SDS011;7603;49.432;11.418;2022-12-24T16:47:03;2.50;;;2.30;;
15012;SDS011;7603;49.432;11.418;2022-12-24T16:49:36;6.50;;;2.70;;
15012;SDS011;7603;49.432;11.418;2022-12-24T16:52:02;4.70;;;2.55;;
15012;SDS011;7603;49.432;11.418;2022-12-24T16:54:29;3.83;;;2.40;;
15012;SDS011;7603;49.432;11.418;2022-12-24T16:56:57;2.53;;;1.70;;
15012;SDS011;7603;49.432;11.418;2022-12-24T16:59:23;4.00;;;1.92;;
15012;SDS011;7603;49.432;11.418;2022-12-24T17:01:49;4.13;;;1.90;;
15012;SDS011;7603;49.432;11.418;2022-12-24T17:04:16;6.30;;;4.18;;
15012;SDS011;7603;49.432;11.418;2022-12-24T17:06:43;4.03;;;1.88;;
15012;SDS011;7603;49.432;11.418;2022-12-24T17:09:10;3.20;;;2.22;;
15012;SDS011;7603;49.432;11.418;2022-12-24T17:11:36;4.32;;;1.50;;